createdAt,value
2022-12-09T00:01:06.837Z,0.59
2022-12-09T00:03:34.128Z,0.61
2022-12-09T00:06:18.742Z,0.63
2022-12-09T00:08:45.854Z,0.64
2022-12-09T00:11:13.039Z,0.60
2022-12-09T00:13:40.225Z,0.57
2022-12-09T00:16:12.010Z,0.54
2022-12-09T00:18:39.661Z,0.53
2022-12-09T00:21:29.636Z,0.53
2022-12-09T00:23:58.147Z,0.52
2022-12-09T00:26:26.677Z,0.49
2022-12-09T00:28:54.669Z,0.44
2022-12-09T00:31:24.685Z,0.41
2022-12-09T00:33:52.768Z,0.42
2022-12-09T00:36:22.034Z,0.41
2022-12-09T00:38:48.861Z,0.44
2022-12-09T00:41:17.070Z,0.45
2022-12-09T00:43:44.289Z,0.46
2022-12-09T00:46:12.776Z,0.48
2022-12-09T00:48:45.625Z,0.49
2022-12-09T00:51:18.563Z,0.49
2022-12-09T00:53:45.897Z,0.52
2022-12-09T00:56:12.546Z,0.53
2022-12-09T00:58:39.407Z,0.52
2022-12-09T01:01:06.349Z,0.54
2022-12-09T01:03:33.662Z,0.54
2022-12-09T01:06:00.827Z,0.57
2022-12-09T01:08:27.556Z,0.56
2022-12-09T01:10:54.527Z,0.58
2022-12-09T01:13:21.184Z,0.60
2022-12-09T01:15:48.198Z,0.60
2022-12-09T01:18:15.065Z,0.60
2022-12-09T01:20:41.697Z,0.57
2022-12-09T01:23:08.582Z,0.55
2022-12-09T01:25:35.407Z,0.50
2022-12-09T01:28:02.232Z,0.47
2022-12-09T01:30:28.963Z,0.44
2022-12-09T01:32:55.705Z,0.41
2022-12-09T01:35:22.482Z,0.36
2022-12-09T01:37:49.134Z,0.32
2022-12-09T01:40:18.578Z,0.30
2022-12-09T01:42:46.152Z,0.25
2022-12-09T01:45:40.761Z,0.19
2022-12-09T01:48:15.935Z,0.12
2022-12-09T01:50:47.441Z,0.07
2022-12-09T01:53:16.166Z,0.04
2022-12-09T01:55:43.100Z,0.05
2022-12-09T01:58:10.443Z,0.06
2022-12-09T02:00:37.129Z,0.10
2022-12-09T02:03:04.041Z,0.11
2022-12-09T02:05:31.107Z,0.15
2022-12-09T02:07:57.883Z,0.18
2022-12-09T02:10:25.225Z,0.22
2022-12-09T02:12:58.084Z,0.23
2022-12-09T02:15:37.556Z,0.23
2022-12-09T02:18:20.753Z,0.21
2022-12-09T02:20:53.525Z,0.18
2022-12-09T02:23:56.051Z,0.19
2022-12-09T02:26:35.877Z,0.14
2022-12-09T02:29:27.055Z,0.11
2022-12-09T02:32:15.608Z,0.11
2022-12-09T02:35:06.218Z,0.08
2022-12-09T02:37:35.631Z,0.05
2022-12-09T02:40:19.618Z,0.02
2022-12-09T02:42:48.685Z,0.03
2022-12-09T02:45:18.300Z,0.04
2022-12-09T02:47:50.376Z,0.06
2022-12-09T02:50:22.427Z,0.02
2022-12-09T02:52:52.758Z,0.03
2022-12-09T02:55:21.718Z,0.03
2022-12-09T02:57:55.166Z,-0.01
2022-12-09T03:02:59.731Z,-0.06
2022-12-09T03:06:04.899Z,-0.09
2022-12-09T03:08:39.937Z,-0.13
2022-12-09T03:11:10.635Z,-0.20
2022-12-09T03:14:03.917Z,-0.23
2022-12-09T03:16:42.557Z,-0.25
2022-12-09T03:19:30.658Z,-0.26
2022-12-09T03:22:01.182Z,-0.29
2022-12-09T03:24:33.405Z,-0.33
2022-12-09T03:27:07.003Z,-0.34
2022-12-09T03:29:37.637Z,-0.36
2022-12-09T03:32:05.252Z,-0.37
2022-12-09T03:34:38.034Z,-0.43
2022-12-09T03:37:06.652Z,-0.48
2022-12-09T03:39:37.627Z,-0.54
2022-12-09T03:42:15.900Z,-0.55
2022-12-09T03:44:52.352Z,-0.59
2022-12-09T03:47:19.615Z,-0.59
2022-12-09T03:49:46.463Z,-0.61
2022-12-09T03:52:37.381Z,-0.66
2022-12-09T03:55:23.798Z,-0.68
2022-12-09T03:57:55.163Z,-0.72
2022-12-09T04:00:22.045Z,-0.73
2022-12-09T04:02:49.869Z,-0.76
2022-12-09T04:05:16.955Z,-0.79
2022-12-09T04:07:44.111Z,-0.84
2022-12-09T04:10:12.384Z,-0.84
2022-12-09T04:12:42.262Z,-0.84
2022-12-09T04:15:11.725Z,-0.85
2022-12-09T04:17:38.551Z,-0.86
2022-12-09T04:20:06.905Z,-0.86
2022-12-09T04:22:34.329Z,-0.88
2022-12-09T04:25:00.990Z,-0.88
2022-12-09T04:27:27.634Z,-0.89
2022-12-09T04:29:54.201Z,-0.91
2022-12-09T04:32:21.108Z,-0.95
2022-12-09T04:34:47.838Z,-0.98
2022-12-09T04:37:15.394Z,-0.99
2022-12-09T04:39:42.128Z,-1.02
2022-12-09T04:42:08.898Z,-1.03
2022-12-09T04:44:36.005Z,-1.07
2022-12-09T04:47:02.866Z,-1.08
2022-12-09T04:49:31.659Z,-1.09
2022-12-09T04:51:58.850Z,-1.09
2022-12-09T04:54:25.570Z,-1.10
2022-12-09T04:56:52.162Z,-1.15
2022-12-09T04:59:18.835Z,-1.19
2022-12-09T05:01:45.828Z,-1.23
2022-12-09T05:04:13.974Z,-1.23
2022-12-09T05:06:40.929Z,-1.23
2022-12-09T05:09:12.440Z,-1.25
2022-12-09T05:11:41.009Z,-1.27
2022-12-09T05:14:07.869Z,-1.25
2022-12-09T05:16:35.082Z,-1.25
2022-12-09T05:19:02.472Z,-1.26
2022-12-09T05:21:30.079Z,-1.28
2022-12-09T05:23:57.019Z,-1.27
2022-12-09T05:26:24.430Z,-1.26
2022-12-09T05:28:51.870Z,-1.26
2022-12-09T05:31:22.032Z,-1.23
2022-12-09T05:33:50.594Z,-1.21
2022-12-09T05:36:20.964Z,-1.23
2022-12-09T05:38:48.948Z,-1.23
2022-12-09T05:41:17.092Z,-1.24
2022-12-09T05:43:44.150Z,-1.23
2022-12-09T05:46:12.989Z,-1.21
2022-12-09T05:48:40.667Z,-1.21
2022-12-09T05:51:16.782Z,-1.22
2022-12-09T05:53:44.493Z,-1.19
2022-12-09T05:56:16.070Z,-1.19
2022-12-09T05:58:43.247Z,-1.18
2022-12-09T06:01:10.172Z,-1.18
2022-12-09T06:03:37.951Z,-1.17
2022-12-09T06:06:13.748Z,-1.17
2022-12-09T06:08:42.199Z,-1.15
2022-12-09T06:11:21.532Z,-1.15
2022-12-09T06:13:49.850Z,-1.15
2022-12-09T06:16:19.728Z,-1.14
2022-12-09T06:18:47.611Z,-1.15
2022-12-09T06:21:17.030Z,-1.14
2022-12-09T06:23:44.233Z,-1.15
2022-12-09T06:26:26.403Z,-1.15
2022-12-09T06:28:54.230Z,-1.16
2022-12-09T06:31:22.078Z,-1.18
2022-12-09T06:33:58.320Z,-1.22
2022-12-09T06:36:27.271Z,-1.23
2022-12-09T06:38:54.738Z,-1.26
2022-12-09T06:41:21.861Z,-1.26
2022-12-09T06:43:48.857Z,-1.25
2022-12-09T06:46:23.728Z,-1.25
2022-12-09T06:48:51.214Z,-1.22
2022-12-09T06:51:18.541Z,-1.22
2022-12-09T06:53:46.158Z,-1.21
2022-12-09T06:56:13.907Z,-1.20
2022-12-09T06:58:43.143Z,-1.22
2022-12-09T07:01:14.049Z,-1.23
2022-12-09T07:03:43.065Z,-1.23
2022-12-09T07:06:21.086Z,-1.25
2022-12-09T07:08:48.601Z,-1.33
2022-12-09T07:11:16.770Z,-1.39
2022-12-09T07:13:43.678Z,-1.46
2022-12-09T07:16:10.454Z,-1.51
2022-12-09T07:18:37.408Z,-1.56
2022-12-09T07:21:15.754Z,-1.62
2022-12-09T07:23:43.533Z,-1.64
2022-12-09T07:26:10.753Z,-1.64
2022-12-09T07:28:39.368Z,-1.68
2022-12-09T07:31:06.505Z,-1.67
2022-12-09T07:33:34.511Z,-1.74
2022-12-09T07:36:01.243Z,-1.77
2022-12-09T07:38:27.995Z,-1.79
2022-12-09T07:41:05.563Z,-1.80
2022-12-09T07:43:36.215Z,-1.83
2022-12-09T07:46:07.624Z,-1.85
2022-12-09T07:48:35.347Z,-1.84
2022-12-09T07:51:03.579Z,-1.89
2022-12-09T07:53:30.907Z,-1.90
2022-12-09T07:56:03.171Z,-1.92
2022-12-09T07:58:30.514Z,-1.94
2022-12-09T08:00:57.326Z,-1.95
2022-12-09T08:03:24.152Z,-1.95
2022-12-09T08:05:53.040Z,-1.99
2022-12-09T08:08:20.950Z,-2.03
2022-12-09T08:10:48.457Z,-2.05
2022-12-09T08:13:15.467Z,-2.04
2022-12-09T08:15:42.219Z,-2.04
2022-12-09T08:18:10.376Z,-1.98
2022-12-09T08:20:37.249Z,-1.94
2022-12-09T08:23:05.662Z,-1.88
2022-12-09T08:25:33.149Z,-1.88
2022-12-09T08:28:00.289Z,-1.90
2022-12-09T08:30:27.538Z,-1.96
2022-12-09T08:32:54.781Z,-2.02
2022-12-09T08:35:21.753Z,-2.03
2022-12-09T08:37:48.521Z,-2.03
2022-12-09T08:40:15.650Z,-2.07
2022-12-09T08:42:42.724Z,-2.05
2022-12-09T08:45:10.015Z,-2.06
2022-12-09T08:47:37.194Z,-2.06
2022-12-09T08:50:05.357Z,-2.06
2022-12-09T08:52:38.721Z,-2.09
2022-12-09T08:55:07.917Z,-2.09
2022-12-09T08:57:34.623Z,-2.07
2022-12-09T09:00:02.362Z,-2.08
2022-12-09T09:02:29.250Z,-2.07
2022-12-09T09:04:57.555Z,-2.08
2022-12-09T09:07:24.763Z,-2.07
2022-12-09T09:09:52.216Z,-2.06
2022-12-09T09:12:19.150Z,-2.07
2022-12-09T09:14:47.017Z,-2.06
2022-12-09T09:17:14.362Z,-2.01
2022-12-09T09:19:41.139Z,-1.99
2022-12-09T09:22:08.685Z,-1.99
2022-12-09T09:24:35.802Z,-1.94
2022-12-09T09:27:02.901Z,-1.95
2022-12-09T09:29:30.080Z,-1.96
2022-12-09T09:31:57.573Z,-1.96
2022-12-09T09:34:26.943Z,-1.94
2022-12-09T09:36:55.765Z,-1.94
2022-12-09T09:39:23.242Z,-1.94
2022-12-09T09:41:59.579Z,-1.92
2022-12-09T09:44:43.427Z,-1.88
2022-12-09T09:47:25.931Z,-1.88
2022-12-09T09:50:20.649Z,-1.87
2022-12-09T09:52:50.031Z,-1.86
2022-12-09T09:55:30.588Z,-1.85
2022-12-09T09:58:19.044Z,-1.86
2022-12-09T10:00:55.762Z,-1.83
2022-12-09T10:03:37.167Z,-1.77
2022-12-09T10:06:22.854Z,-1.74
2022-12-09T10:09:34.375Z,-1.70
2022-12-09T10:12:19.985Z,-1.74
2022-12-09T10:14:53.093Z,-1.70
2022-12-09T10:17:29.204Z,-1.67
2022-12-09T10:20:06.141Z,-1.68
2022-12-09T10:22:56.715Z,-1.64
2022-12-09T10:25:29.458Z,-1.58
2022-12-09T10:28:19.477Z,-1.58
2022-12-09T10:30:46.359Z,-1.58
2022-12-09T10:33:15.829Z,-1.63
2022-12-09T10:35:44.102Z,-1.64
2022-12-09T10:38:13.332Z,-1.63
2022-12-09T10:40:46.510Z,-1.64
2022-12-09T10:43:35.236Z,-1.62
2022-12-09T10:46:19.992Z,-1.62
2022-12-09T10:48:53.085Z,-1.62
2022-12-09T10:51:27.837Z,-1.68
2022-12-09T10:53:55.012Z,-1.69
2022-12-09T10:56:30.945Z,-1.68
2022-12-09T10:59:22.575Z,-1.70
2022-12-09T11:01:56.743Z,-1.69
2022-12-09T11:04:26.844Z,-1.68
2022-12-09T11:06:59.661Z,-1.66
2022-12-09T11:09:38.703Z,-1.66
2022-12-09T11:12:29.975Z,-1.65
2022-12-09T11:15:00.614Z,-1.58
2022-12-09T11:17:34.023Z,-1.52
2022-12-09T11:20:07.973Z,-1.47
2022-12-09T11:22:43.468Z,-1.48
2022-12-09T11:25:13.444Z,-1.45
2022-12-09T11:27:48.089Z,-1.41
2022-12-09T11:30:15.831Z,-1.40
2022-12-09T11:32:56.871Z,-1.36
2022-12-09T11:35:32.282Z,-1.33
2022-12-09T11:38:03.727Z,-1.28
2022-12-09T11:40:32.610Z,-1.25
2022-12-09T11:42:59.493Z,-1.17
2022-12-09T11:45:33.622Z,-1.13
2022-12-09T11:48:36.304Z,-1.08
2022-12-09T11:51:02.686Z,-1.06
2022-12-09T11:53:40.753Z,-1.03
2022-12-09T11:56:21.050Z,-0.99
2022-12-09T11:59:00.085Z,-0.93
2022-12-09T12:01:38.890Z,-0.83
2022-12-09T12:04:10.045Z,-0.78
2022-12-09T12:06:53.483Z,-0.83
2022-12-09T12:09:45.230Z,-0.82
2022-12-09T12:12:17.759Z,-0.82
2022-12-09T12:14:44.380Z,-0.77
2022-12-09T12:17:22.333Z,-0.77
2022-12-09T12:19:51.574Z,-0.77
2022-12-09T12:22:36.853Z,-0.72
2022-12-09T12:25:33.977Z,-0.67
2022-12-09T12:28:31.185Z,-0.68
2022-12-09T12:31:19.946Z,-0.76
2022-12-09T12:36:58.978Z,-0.79
2022-12-09T12:39:44.075Z,-0.74
2022-12-09T12:42:16.442Z,-0.67
2022-12-09T12:45:10.296Z,-0.65
2022-12-09T12:47:49.148Z,-0.67
2022-12-09T12:50:33.369Z,-0.69
2022-12-09T12:53:18.318Z,-0.67
2022-12-09T12:56:15.829Z,-0.66
2022-12-09T12:59:08.273Z,-0.68
2022-12-09T13:01:57.639Z,-0.67
2022-12-09T13:04:38.499Z,-0.59
2022-12-09T13:07:30.815Z,-0.59
2022-12-09T13:10:08.570Z,-0.62
2022-12-09T13:12:56.974Z,-0.61
2022-12-09T13:15:44.155Z,-0.65
2022-12-09T13:18:22.035Z,-0.63
2022-12-09T13:20:48.628Z,-0.63
2022-12-09T13:23:43.035Z,-0.55
2022-12-09T13:26:45.422Z,-0.46
2022-12-09T13:30:10.464Z,-0.39
2022-12-09T13:33:16.855Z,-0.35
2022-12-09T13:36:13.585Z,-0.46
2022-12-09T13:38:42.722Z,-0.54
2022-12-09T13:41:27.636Z,-0.60
2022-12-09T13:44:06.540Z,-0.63
2022-12-09T13:46:34.059Z,-0.59
2022-12-09T13:49:18.136Z,-0.62
2022-12-09T13:51:48.460Z,-0.60
2022-12-09T13:54:17.507Z,-0.58
2022-12-09T13:56:47.894Z,-0.54
2022-12-09T13:59:33.519Z,-0.49
2022-12-09T14:02:11.051Z,-0.41
2022-12-09T14:04:51.673Z,-0.36
2022-12-09T14:07:42.781Z,-0.33
2022-12-09T14:10:37.694Z,-0.42
2022-12-09T14:13:35.552Z,-0.48
2022-12-09T14:16:10.242Z,-0.51
2022-12-09T14:18:39.873Z,-0.57
2022-12-09T14:21:19.296Z,-0.67
2022-12-09T14:24:08.050Z,-0.73
2022-12-09T14:26:37.547Z,-0.76
2022-12-09T14:29:04.648Z,-0.76
2022-12-09T14:32:18.981Z,-0.79
2022-12-09T14:34:49.093Z,-0.79
2022-12-09T14:37:24.954Z,-0.81
2022-12-09T14:39:59.141Z,-0.86
2022-12-09T14:42:42.784Z,-0.91
2022-12-09T14:45:22.002Z,-0.94
2022-12-09T14:47:48.873Z,-0.94
2022-12-09T14:50:16.911Z,-0.95
2022-12-09T14:52:57.704Z,-1.01
2022-12-09T14:55:26.509Z,-1.02
2022-12-09T14:57:55.790Z,-1.05
2022-12-09T15:00:28.491Z,-1.06
2022-12-09T15:03:30.064Z,-1.05
2022-12-09T15:06:01.504Z,-1.07
2022-12-09T15:08:37.905Z,-1.09
2022-12-09T15:11:21.605Z,-1.07
2022-12-09T15:13:51.388Z,-1.04
2022-12-09T15:16:22.405Z,-1.00
2022-12-09T15:18:51.592Z,-0.96
2022-12-09T15:21:25.657Z,-0.95
2022-12-09T15:23:52.498Z,-0.95
2022-12-09T15:26:27.389Z,-0.94
2022-12-09T15:28:56.561Z,-0.93
2022-12-09T15:31:28.495Z,-0.93
2022-12-09T15:33:58.386Z,-0.92
2022-12-09T15:36:34.593Z,-0.91
2022-12-09T15:39:01.131Z,-0.92
2022-12-09T15:41:52.134Z,-0.93
2022-12-09T15:44:24.068Z,-0.96
2022-12-09T15:46:53.824Z,-0.96
2022-12-09T15:49:33.139Z,-0.97
2022-12-09T15:52:02.761Z,-0.99
2022-12-09T15:54:37.483Z,-0.97
2022-12-09T15:57:07.285Z,-0.98
2022-12-09T15:59:40.981Z,-0.96
2022-12-09T16:02:11.886Z,-0.95
2022-12-09T16:04:47.017Z,-0.94
2022-12-09T16:07:18.391Z,-0.93
2022-12-09T16:10:09.830Z,-0.93
2022-12-09T16:12:37.740Z,-0.94
2022-12-09T16:15:06.470Z,-0.94
2022-12-09T16:17:50.278Z,-0.95
2022-12-09T16:20:32.587Z,-0.98
2022-12-09T16:23:01.496Z,-0.98
2022-12-09T16:25:30.319Z,-1.00
2022-12-09T16:28:00.275Z,-1.00
2022-12-09T16:30:30.796Z,-0.97
2022-12-09T16:32:59.461Z,-0.95
2022-12-09T16:35:31.539Z,-0.95
2022-12-09T16:37:58.175Z,-0.95
2022-12-09T16:40:24.995Z,-0.98
2022-12-09T16:42:54.056Z,-0.98
2022-12-09T16:45:35.927Z,-0.96
2022-12-09T16:48:03.347Z,-0.94
2022-12-09T16:50:32.941Z,-0.93
2022-12-09T16:53:00.224Z,-0.94
2022-12-09T16:55:29.646Z,-0.93
2022-12-09T16:57:57.603Z,-0.92
2022-12-09T17:00:27.125Z,-0.92
2022-12-09T17:03:10.751Z,-0.93
2022-12-09T17:05:37.377Z,-0.92
2022-12-09T17:08:04.282Z,-0.93
2022-12-09T17:10:30.911Z,-0.91
2022-12-09T17:12:57.670Z,-0.89
2022-12-09T17:15:24.443Z,-0.90
2022-12-09T17:17:51.102Z,-0.89
2022-12-09T17:20:17.913Z,-0.89
2022-12-09T17:22:44.566Z,-0.86
2022-12-09T17:25:11.155Z,-0.85
2022-12-09T17:27:38.296Z,-0.86
2022-12-09T17:30:05.546Z,-0.86
2022-12-09T17:32:32.243Z,-0.88
2022-12-09T17:34:58.880Z,-0.89
2022-12-09T17:37:25.481Z,-0.90
2022-12-09T17:39:56.844Z,-0.89
2022-12-09T17:42:26.894Z,-0.91
2022-12-09T17:44:53.490Z,-0.92
2022-12-09T17:47:20.153Z,-0.92
2022-12-09T17:49:46.832Z,-0.92
2022-12-09T17:52:14.258Z,-0.90
2022-12-09T17:54:40.948Z,-0.91
2022-12-09T17:57:07.739Z,-0.90
2022-12-09T17:59:34.357Z,-0.87
2022-12-09T18:02:03.596Z,-0.86
2022-12-09T18:04:31.475Z,-0.86
2022-12-09T18:06:58.514Z,-0.85
2022-12-09T18:09:25.103Z,-0.82
2022-12-09T18:11:51.958Z,-0.84
2022-12-09T18:14:19.004Z,-0.84
2022-12-09T18:16:49.351Z,-0.85
2022-12-09T18:19:18.200Z,-0.83
2022-12-09T18:21:45.084Z,-0.81
2022-12-09T18:24:11.725Z,-0.81
2022-12-09T18:26:42.045Z,-0.81
2022-12-09T18:29:10.402Z,-0.80
2022-12-09T18:31:37.327Z,-0.82
2022-12-09T18:34:03.936Z,-0.82
2022-12-09T18:36:31.218Z,-0.82
2022-12-09T18:38:58.643Z,-0.82
2022-12-09T18:41:29.174Z,-0.82
2022-12-09T18:43:57.768Z,-0.84
2022-12-09T18:46:34.177Z,-0.88
2022-12-09T18:49:04.821Z,-0.88
2022-12-09T18:51:32.773Z,-0.88
2022-12-09T18:54:01.751Z,-0.86
2022-12-09T18:56:29.228Z,-0.87
2022-12-09T18:59:12.047Z,-0.88
2022-12-09T19:01:41.733Z,-0.85
2022-12-09T19:04:15.016Z,-0.86
2022-12-09T19:06:44.140Z,-0.83
2022-12-09T19:09:14.419Z,-0.82
2022-12-09T19:11:42.421Z,-0.83
2022-12-09T19:14:10.236Z,-0.82
2022-12-09T19:16:37.730Z,-0.82
2022-12-09T19:19:09.644Z,-0.80
2022-12-09T19:21:36.792Z,-0.82
2022-12-09T19:24:03.545Z,-0.83
2022-12-09T19:26:32.651Z,-0.86
2022-12-09T19:29:02.142Z,-0.85
2022-12-09T19:31:37.496Z,-0.85
2022-12-09T19:34:12.036Z,-0.84
2022-12-09T19:36:39.151Z,-0.84
2022-12-09T19:39:08.352Z,-0.83
2022-12-09T19:41:36.505Z,-0.82
2022-12-09T19:44:04.889Z,-0.81
2022-12-09T19:46:32.740Z,-0.79
2022-12-09T19:48:59.839Z,-0.80
2022-12-09T19:51:27.400Z,-0.81
2022-12-09T19:53:56.238Z,-0.82
2022-12-09T19:56:24.109Z,-0.81
2022-12-09T19:58:52.028Z,-0.79
2022-12-09T20:01:23.007Z,-0.78
2022-12-09T20:03:52.596Z,-0.79
2022-12-09T20:06:21.415Z,-0.79
2022-12-09T20:08:48.478Z,-0.79
2022-12-09T20:11:20.644Z,-0.77
2022-12-09T20:13:48.101Z,-0.78
2022-12-09T20:16:17.386Z,-0.78
2022-12-09T20:18:45.466Z,-0.76
2022-12-09T20:21:13.523Z,-0.75
2022-12-09T20:23:41.851Z,-0.73
2022-12-09T20:26:12.991Z,-0.73
2022-12-09T20:28:41.050Z,-0.72
2022-12-09T20:31:10.446Z,-0.70
2022-12-09T20:33:37.735Z,-0.70
2022-12-09T20:36:10.409Z,-0.69
2022-12-09T20:38:37.924Z,-0.66
2022-12-09T20:41:12.824Z,-0.67
2022-12-09T20:43:43.747Z,-0.70
2022-12-09T20:46:11.855Z,-0.70
2022-12-09T20:48:40.063Z,-0.71
2022-12-09T20:51:13.314Z,-0.71
2022-12-09T20:53:41.539Z,-0.71
2022-12-09T20:56:09.400Z,-0.70
2022-12-09T20:58:38.441Z,-0.68
2022-12-09T21:01:32.841Z,-0.66
2022-12-09T21:04:01.043Z,-0.66
2022-12-09T21:06:31.614Z,-0.66
2022-12-09T21:09:07.872Z,-0.66
2022-12-09T21:11:34.962Z,-0.66
2022-12-09T21:14:04.027Z,-0.67
2022-12-09T21:16:33.909Z,-0.65
2022-12-09T21:19:05.276Z,-0.65
2022-12-09T21:21:40.924Z,-0.68
2022-12-09T21:24:11.708Z,-0.66
2022-12-09T21:26:38.951Z,-0.66
2022-12-09T21:29:05.885Z,-0.64
2022-12-09T21:31:36.727Z,-0.63
2022-12-09T21:34:05.407Z,-0.62
2022-12-09T21:36:35.277Z,-0.58
2022-12-09T21:39:02.796Z,-0.56
2022-12-09T21:41:33.149Z,-0.55
2022-12-09T21:44:00.407Z,-0.52
2022-12-09T21:46:29.927Z,-0.51
2022-12-09T21:49:03.028Z,-0.50
2022-12-09T21:51:31.034Z,-0.51
2022-12-09T21:53:57.741Z,-0.50
2022-12-09T21:56:27.469Z,-0.51
2022-12-09T21:58:56.363Z,-0.51
2022-12-09T22:01:26.877Z,-0.50
2022-12-09T22:03:54.881Z,-0.50
2022-12-09T22:06:21.773Z,-0.48
2022-12-09T22:08:48.547Z,-0.48
2022-12-09T22:11:24.976Z,-0.49
2022-12-09T22:13:52.872Z,-0.48
2022-12-09T22:16:23.406Z,-0.49
2022-12-09T22:18:53.539Z,-0.49
2022-12-09T22:21:26.283Z,-0.49
2022-12-09T22:23:54.940Z,-0.49
2022-12-09T22:26:22.859Z,-0.51
2022-12-09T22:28:49.794Z,-0.52
2022-12-09T22:31:21.475Z,-0.54
2022-12-09T22:33:50.036Z,-0.55
2022-12-09T22:36:17.074Z,-0.56
2022-12-09T22:38:44.154Z,-0.58
2022-12-09T22:41:15.019Z,-0.59
2022-12-09T22:43:42.473Z,-0.61
2022-12-09T22:46:13.797Z,-0.63
2022-12-09T22:48:41.570Z,-0.65
2022-12-09T22:51:11.372Z,-0.64
2022-12-09T22:53:38.381Z,-0.62
2022-12-09T22:56:05.365Z,-0.63
2022-12-09T22:58:32.141Z,-0.65
2022-12-09T23:00:58.987Z,-0.68
2022-12-09T23:03:25.753Z,-0.71
2022-12-09T23:05:52.504Z,-0.75
2022-12-09T23:08:19.182Z,-0.78
2022-12-09T23:10:45.984Z,-0.81
2022-12-09T23:13:12.651Z,-0.86
2022-12-09T23:15:39.530Z,-0.88
2022-12-09T23:18:06.252Z,-0.90
2022-12-09T23:20:32.961Z,-0.91
2022-12-09T23:22:59.755Z,-0.95
2022-12-09T23:25:26.436Z,-0.96
2022-12-09T23:27:53.121Z,-0.97
2022-12-09T23:30:19.775Z,-0.97
2022-12-09T23:32:46.410Z,-0.99
2022-12-09T23:35:13.184Z,-1.00
2022-12-09T23:37:39.838Z,-1.02
2022-12-09T23:40:07.522Z,-1.04
2022-12-09T23:42:34.405Z,-1.06
2022-12-09T23:45:01.039Z,-1.07
2022-12-09T23:47:28.007Z,-1.07
2022-12-09T23:49:55.579Z,-1.07
2022-12-09T23:52:22.306Z,-1.09
2022-12-09T23:54:48.943Z,-1.11
2022-12-09T23:57:15.602Z,-1.12
2022-12-09T23:59:42.201Z,-1.13
